Terminal Aerodrome Forecast
Issued by NWS

Home | Current Version | Previous Version | Text Only | Print | Product List | Glossary On
Versions: 1 2 3 4 5 6 7 8 9 10 11 12 13 14
758
FTUS41 KLWX 121720
TAFMTN
TAF
KMTN 121720Z 1218/1318 16005KT P6SM BKN050
     FM130100 20005KT 5SM -SHSN SCT008 OVC050
     FM130400 24006KT P6SM BKN050
     FM130700 28013G20KT P6SM BKN050
     FM130900 29019G35KT P6SM BKN050=

USA.gov is the U.S. government's official web portal to all federal, state and local government web resources and services.